SVA1428 OEJN-OEMA
Flight info
| Callsign | SVA1428 |
|---|---|
| Flight time | 0h 40m |
| Altitude | 30000 |
| Route | DATAP A424 DEGVU |
| Aircraft | A320/M-SDE3FGHIRWY/LB1 |
Departure
| Time | 2026-04-28 22:56 |
|---|---|
| Airport | King Abdulaziz International Airport (OEJN) |
Arrival
| Time | 2026-04-28 23:36 |
|---|---|
| Airport | Prince Mohammad Bin Abdulaziz Airport (OEMA) |
| Time | Latitude | Longitude | Altitude | Speed | Heading |
|---|---|---|---|---|---|
| 2026-04-28 22:23 | 21.67123 | 39.16887 | 34 ft | 0 kts | 171° |
| 2026-04-28 22:42 | 21.67138 | 39.16884 | 32 ft | 2 kts | 171° |
| 2026-04-28 22:42 | 21.67160 | 39.16880 | 32 ft | 2 kts | 171° |
| 2026-04-28 22:43 | 21.67177 | 39.16877 | 31 ft | 2 kts | 171° |
| 2026-04-28 22:43 | 21.67193 | 39.16879 | 30 ft | 2 kts | 208° |
| 2026-04-28 22:43 | 21.67203 | 39.16884 | 31 ft | 2 kts | 208° |
| 2026-04-28 22:43 | 21.67211 | 39.16889 | 31 ft | 0 kts | 232° |
| 2026-04-28 22:46 | 21.67210 | 39.16841 | 33 ft | 7 kts | 279° |
| 2026-04-28 22:46 | 21.67217 | 39.16806 | 31 ft | 0 kts | 283° |
| 2026-04-28 22:46 | 21.67219 | 39.16795 | 33 ft | 6 kts | 283° |
| 2026-04-28 22:46 | 21.67255 | 39.16780 | 33 ft | 7 kts | 1° |
| 2026-04-28 22:47 | 21.67312 | 39.16774 | 33 ft | 9 kts | 352° |
| 2026-04-28 22:47 | 21.67384 | 39.16755 | 33 ft | 12 kts | 339° |
| 2026-04-28 22:47 | 21.67470 | 39.16725 | 33 ft | 14 kts | 345° |
| 2026-04-28 22:47 | 21.67564 | 39.16693 | 34 ft | 12 kts | 339° |
| 2026-04-28 22:48 | 21.67632 | 39.16663 | 34 ft | 12 kts | 330° |
| 2026-04-28 22:48 | 21.67639 | 39.16579 | 34 ft | 12 kts | 252° |
| 2026-04-28 22:48 | 21.67614 | 39.16502 | 34 ft | 10 kts | 248° |
| 2026-04-28 22:48 | 21.67589 | 39.16433 | 34 ft | 9 kts | 251° |
| 2026-04-28 22:49 | 21.67568 | 39.16368 | 33 ft | 9 kts | 249° |
| 2026-04-28 22:49 | 21.67543 | 39.16295 | 33 ft | 10 kts | 251° |
| 2026-04-28 22:49 | 21.67520 | 39.16226 | 33 ft | 9 kts | 250° |
| 2026-04-28 22:49 | 21.67488 | 39.16166 | 33 ft | 9 kts | 223° |
| 2026-04-28 22:50 | 21.67432 | 39.16166 | 31 ft | 8 kts | 160° |
| 2026-04-28 22:50 | 21.67382 | 39.16186 | 33 ft | 7 kts | 159° |
| 2026-04-28 22:50 | 21.67339 | 39.16204 | 32 ft | 6 kts | 159° |
| 2026-04-28 22:50 | 21.67295 | 39.16223 | 33 ft | 10 kts | 159° |
| 2026-04-28 22:51 | 21.67209 | 39.16258 | 34 ft | 17 kts | 158° |
| 2026-04-28 22:51 | 21.67093 | 39.16305 | 34 ft | 17 kts | 159° |
| 2026-04-28 22:51 | 21.66986 | 39.16350 | 34 ft | 16 kts | 160° |
| 2026-04-28 22:51 | 21.66887 | 39.16388 | 34 ft | 14 kts | 161° |
| 2026-04-28 22:52 | 21.66797 | 39.16422 | 34 ft | 13 kts | 160° |
| 2026-04-28 22:52 | 21.66712 | 39.16454 | 34 ft | 12 kts | 160° |
| 2026-04-28 22:52 | 21.66634 | 39.16485 | 34 ft | 12 kts | 160° |
| 2026-04-28 22:52 | 21.66541 | 39.16523 | 34 ft | 14 kts | 159° |
| 2026-04-28 22:53 | 21.66451 | 39.16559 | 34 ft | 14 kts | 160° |
| 2026-04-28 22:53 | 21.66369 | 39.16592 | 34 ft | 12 kts | 160° |
| 2026-04-28 22:53 | 21.66292 | 39.16622 | 33 ft | 11 kts | 159° |
| 2026-04-28 22:53 | 21.66222 | 39.16648 | 33 ft | 10 kts | 175° |
| 2026-04-28 22:54 | 21.66175 | 39.16606 | 33 ft | 9 kts | 247° |
| 2026-04-28 22:54 | 21.66152 | 39.16545 | 33 ft | 8 kts | 249° |
| 2026-04-28 22:54 | 21.66143 | 39.16488 | 33 ft | 7 kts | 286° |
| 2026-04-28 22:54 | 21.66174 | 39.16464 | 32 ft | 0 kts | 339° |
| 2026-04-28 22:55 | 21.66211 | 39.16449 | 32 ft | 29 kts | 339° |
| 2026-04-28 22:55 | 21.66641 | 39.16284 | 36 ft | 100 kts | 340° |
| 2026-04-28 22:55 | 21.67483 | 39.15955 | 34 ft | 155 kts | 340° |
| 2026-04-28 22:55 | 21.68576 | 39.15526 | 442 ft | 173 kts | 340° |
| 2026-04-28 22:56 | 21.69764 | 39.15097 | 1035 ft | 187 kts | 343° |
| 2026-04-28 22:56 | 21.71034 | 39.14651 | 1681 ft | 196 kts | 343° |
| 2026-04-28 22:56 | 21.72367 | 39.14172 | 2168 ft | 210 kts | 341° |
| 2026-04-28 22:56 | 21.73824 | 39.13594 | 2604 ft | 235 kts | 339° |
| 2026-04-28 22:57 | 21.75403 | 39.12933 | 3264 ft | 250 kts | 338° |
| 2026-04-28 22:57 | 21.77018 | 39.12259 | 4122 ft | 255 kts | 337° |
| 2026-04-28 22:57 | 21.78700 | 39.11566 | 4979 ft | 262 kts | 336° |
| 2026-04-28 22:57 | 21.80437 | 39.10858 | 5708 ft | 273 kts | 336° |
| 2026-04-28 22:58 | 21.82243 | 39.10128 | 6275 ft | 281 kts | 336° |
| 2026-04-28 22:58 | 21.84088 | 39.09389 | 7106 ft | 285 kts | 336° |
| 2026-04-28 22:58 | 21.85962 | 39.08643 | 7963 ft | 289 kts | 336° |
| 2026-04-28 22:58 | 21.87857 | 39.07891 | 8832 ft | 292 kts | 336° |
| 2026-04-28 22:59 | 21.89778 | 39.07127 | 9715 ft | 296 kts | 335° |
| 2026-04-28 22:59 | 21.91710 | 39.06285 | 10325 ft | 308 kts | 333° |
| 2026-04-28 22:59 | 21.93743 | 39.05324 | 10635 ft | 330 kts | 332° |
| 2026-04-28 22:59 | 21.95871 | 39.04286 | 11238 ft | 339 kts | 332° |
| 2026-04-28 23:00 | 21.98067 | 39.03375 | 11933 ft | 349 kts | 343° |
| 2026-04-28 23:00 | 22.00521 | 39.03254 | 12646 ft | 362 kts | 6° |
| 2026-04-28 23:00 | 22.02922 | 39.04143 | 13328 ft | 373 kts | 28° |
| 2026-04-28 23:00 | 22.05123 | 39.05661 | 13986 ft | 378 kts | 32° |
| 2026-04-28 23:01 | 22.07331 | 39.07226 | 14606 ft | 382 kts | 31° |
| 2026-04-28 23:01 | 22.09562 | 39.08813 | 15239 ft | 386 kts | 31° |
| 2026-04-28 23:01 | 22.11818 | 39.10416 | 15868 ft | 390 kts | 31° |
| 2026-04-28 23:01 | 22.14102 | 39.12032 | 16499 ft | 394 kts | 31° |
| 2026-04-28 23:02 | 22.16409 | 39.13659 | 17138 ft | 398 kts | 31° |
| 2026-04-28 23:02 | 22.18737 | 39.15301 | 17765 ft | 402 kts | 31° |
| 2026-04-28 23:02 | 22.21056 | 39.16937 | 18357 ft | 406 kts | 31° |
| 2026-04-28 23:02 | 22.23436 | 39.18616 | 18883 ft | 410 kts | 31° |
| 2026-04-28 23:03 | 22.25837 | 39.20311 | 19394 ft | 415 kts | 31° |
| 2026-04-28 23:03 | 22.28269 | 39.22026 | 19775 ft | 419 kts | 31° |
| 2026-04-28 23:03 | 22.30713 | 39.23750 | 19879 ft | 421 kts | 31° |
| 2026-04-28 23:03 | 22.33161 | 39.25485 | 19905 ft | 421 kts | 31° |
| 2026-04-28 23:04 | 22.35608 | 39.27222 | 19904 ft | 421 kts | 31° |
| 2026-04-28 23:04 | 22.40491 | 39.30685 | 20030 ft | 425 kts | 31° |
| 2026-04-28 23:04 | 22.42968 | 39.32438 | 20606 ft | 427 kts | 31° |
| 2026-04-28 23:05 | 22.45463 | 39.34201 | 20844 ft | 429 kts | 31° |
| 2026-04-28 23:05 | 22.47947 | 39.35958 | 20903 ft | 420 kts | 30° |
| 2026-04-28 23:05 | 22.50371 | 39.37679 | 20918 ft | 414 kts | 30° |
| 2026-04-28 23:05 | 22.52771 | 39.39384 | 20918 ft | 412 kts | 30° |
| 2026-04-28 23:06 | 22.55167 | 39.41085 | 20929 ft | 412 kts | 30° |
| 2026-04-28 23:06 | 22.57562 | 39.42786 | 20928 ft | 412 kts | 30° |
| 2026-04-28 23:06 | 22.59954 | 39.44486 | 20929 ft | 412 kts | 30° |
| 2026-04-28 23:06 | 22.62348 | 39.46189 | 20929 ft | 412 kts | 30° |
| 2026-04-28 23:07 | 22.64714 | 39.47853 | 20936 ft | 411 kts | 27° |
| 2026-04-28 23:07 | 22.67274 | 39.49199 | 20946 ft | 407 kts | 16° |
| 2026-04-28 23:07 | 22.69937 | 39.50228 | 20950 ft | 407 kts | 15° |
| 2026-04-28 23:07 | 22.72603 | 39.51253 | 20952 ft | 407 kts | 15° |
| 2026-04-28 23:08 | 22.75270 | 39.52285 | 20950 ft | 407 kts | 15° |
| 2026-04-28 23:08 | 22.77933 | 39.53316 | 20950 ft | 407 kts | 15° |
| 2026-04-28 23:08 | 22.80601 | 39.54350 | 20951 ft | 407 kts | 15° |
| 2026-04-28 23:08 | 22.83260 | 39.55387 | 20950 ft | 407 kts | 16° |
| 2026-04-28 23:09 | 22.85922 | 39.56425 | 20970 ft | 407 kts | 16° |
| 2026-04-28 23:09 | 22.88586 | 39.57459 | 20968 ft | 407 kts | 16° |
| 2026-04-28 23:09 | 22.91201 | 39.58471 | 20975 ft | 407 kts | 15° |
| 2026-04-28 23:09 | 22.93881 | 39.59509 | 20973 ft | 406 kts | 16° |
| 2026-04-28 23:10 | 22.96541 | 39.60542 | 20968 ft | 406 kts | 15° |
| 2026-04-28 23:10 | 22.99200 | 39.61574 | 20971 ft | 406 kts | 15° |
| 2026-04-28 23:10 | 23.01905 | 39.62388 | 20966 ft | 401 kts | 5° |
| 2026-04-28 23:10 | 23.04659 | 39.62691 | 20973 ft | 396 kts | 357° |
| 2026-04-28 23:11 | 23.07412 | 39.62830 | 20969 ft | 396 kts | 357° |
| 2026-04-28 23:11 | 23.10167 | 39.62970 | 20977 ft | 396 kts | 357° |
| 2026-04-28 23:11 | 23.12929 | 39.63111 | 20969 ft | 396 kts | 357° |
| 2026-04-28 23:11 | 23.15648 | 39.63251 | 20967 ft | 397 kts | 358° |
| 2026-04-28 23:12 | 23.18403 | 39.63393 | 20974 ft | 397 kts | 358° |
| 2026-04-28 23:12 | 23.21160 | 39.63536 | 20968 ft | 397 kts | 358° |
| 2026-04-28 23:12 | 23.23922 | 39.63679 | 20965 ft | 397 kts | 358° |
| 2026-04-28 23:12 | 23.26679 | 39.63823 | 20961 ft | 396 kts | 358° |
| 2026-04-28 23:13 | 23.29426 | 39.63969 | 20956 ft | 395 kts | 357° |
| 2026-04-28 23:13 | 23.32178 | 39.64113 | 20959 ft | 396 kts | 358° |
| 2026-04-28 23:13 | 23.34935 | 39.64258 | 20970 ft | 397 kts | 358° |
| 2026-04-28 23:13 | 23.37693 | 39.64402 | 20965 ft | 397 kts | 358° |
| 2026-04-28 23:14 | 23.40414 | 39.64544 | 20964 ft | 397 kts | 358° |
| 2026-04-28 23:14 | 23.43177 | 39.64690 | 20965 ft | 397 kts | 358° |
| 2026-04-28 23:14 | 23.45936 | 39.64837 | 20962 ft | 397 kts | 358° |
| 2026-04-28 23:14 | 23.48698 | 39.64984 | 20966 ft | 398 kts | 358° |
| 2026-04-28 23:15 | 23.51461 | 39.65130 | 20964 ft | 398 kts | 358° |
| 2026-04-28 23:15 | 23.54228 | 39.65271 | 20969 ft | 398 kts | 358° |
| 2026-04-28 23:15 | 23.56993 | 39.65409 | 20968 ft | 398 kts | 358° |
| 2026-04-28 23:15 | 23.59761 | 39.65547 | 20982 ft | 398 kts | 358° |
| 2026-04-28 23:16 | 23.62525 | 39.65689 | 20983 ft | 398 kts | 358° |
| 2026-04-28 23:16 | 23.65253 | 39.65831 | 20983 ft | 398 kts | 358° |
| 2026-04-28 23:16 | 23.68018 | 39.65976 | 20983 ft | 398 kts | 358° |
| 2026-04-28 23:16 | 23.70786 | 39.66267 | 20982 ft | 402 kts | 6° |
| 2026-04-28 23:17 | 23.73491 | 39.67087 | 20991 ft | 407 kts | 18° |
| 2026-04-28 23:17 | 23.76126 | 39.68229 | 20991 ft | 407 kts | 18° |
| 2026-04-28 23:17 | 23.78762 | 39.69369 | 20990 ft | 408 kts | 18° |
| 2026-04-28 23:17 | 23.81402 | 39.70505 | 21001 ft | 408 kts | 18° |
| 2026-04-28 23:18 | 23.84042 | 39.71638 | 21000 ft | 408 kts | 18° |
| 2026-04-28 23:18 | 23.86685 | 39.72773 | 20996 ft | 408 kts | 18° |
| 2026-04-28 23:18 | 23.89298 | 39.73895 | 20991 ft | 408 kts | 18° |
| 2026-04-28 23:18 | 23.91944 | 39.75028 | 20990 ft | 409 kts | 18° |
| 2026-04-28 23:19 | 23.94589 | 39.76163 | 20996 ft | 409 kts | 18° |
| 2026-04-28 23:19 | 23.97235 | 39.77301 | 20995 ft | 409 kts | 18° |
| 2026-04-28 23:19 | 23.99880 | 39.78440 | 20992 ft | 409 kts | 18° |
| 2026-04-28 23:19 | 24.02525 | 39.79580 | 21008 ft | 409 kts | 18° |
| 2026-04-28 23:20 | 24.05170 | 39.80720 | 20997 ft | 409 kts | 18° |
| 2026-04-28 23:20 | 24.07820 | 39.81863 | 20985 ft | 409 kts | 18° |
| 2026-04-28 23:20 | 24.10428 | 39.82988 | 20977 ft | 409 kts | 18° |
| 2026-04-28 23:20 | 24.13084 | 39.84136 | 20746 ft | 401 kts | 18° |
| 2026-04-28 23:21 | 24.15655 | 39.85248 | 20492 ft | 395 kts | 18° |
| 2026-04-28 23:21 | 24.18174 | 39.86333 | 20262 ft | 393 kts | 18° |
| 2026-04-28 23:21 | 24.20703 | 39.87410 | 20025 ft | 385 kts | 15° |
| 2026-04-28 23:21 | 24.23253 | 39.88068 | 19787 ft | 371 kts | 1° |
| 2026-04-28 23:22 | 24.25782 | 39.88140 | 19557 ft | 357 kts | 349° |
| 2026-04-28 23:22 | 24.28184 | 39.87730 | 19325 ft | 346 kts | 343° |
| 2026-04-28 23:22 | 24.30522 | 39.87237 | 19089 ft | 337 kts | 343° |
| 2026-04-28 23:22 | 24.32794 | 39.86766 | 18850 ft | 330 kts | 343° |
| 2026-04-28 23:23 | 24.35038 | 39.86300 | 18618 ft | 327 kts | 343° |
| 2026-04-28 23:23 | 24.37233 | 39.85842 | 18414 ft | 325 kts | 343° |
| 2026-04-28 23:23 | 24.39449 | 39.85374 | 18169 ft | 324 kts | 343° |
| 2026-04-28 23:23 | 24.41658 | 39.84908 | 17908 ft | 323 kts | 343° |
| 2026-04-28 23:24 | 24.43857 | 39.84446 | 17656 ft | 321 kts | 343° |
| 2026-04-28 23:24 | 24.46041 | 39.83989 | 17399 ft | 319 kts | 343° |
| 2026-04-28 23:24 | 24.48223 | 39.83528 | 17145 ft | 318 kts | 343° |
| 2026-04-28 23:24 | 24.50389 | 39.83062 | 16894 ft | 317 kts | 343° |
| 2026-04-28 23:25 | 24.52542 | 39.82597 | 16645 ft | 315 kts | 343° |
| 2026-04-28 23:25 | 24.54684 | 39.82133 | 16398 ft | 312 kts | 343° |
| 2026-04-28 23:25 | 24.56804 | 39.81674 | 16148 ft | 309 kts | 343° |
| 2026-04-28 23:25 | 24.58876 | 39.81229 | 15908 ft | 307 kts | 343° |
| 2026-04-28 23:26 | 24.60964 | 39.80784 | 15660 ft | 305 kts | 343° |
| 2026-04-28 23:26 | 24.63041 | 39.80345 | 15423 ft | 302 kts | 344° |
| 2026-04-28 23:26 | 24.65095 | 39.79914 | 15189 ft | 300 kts | 344° |
| 2026-04-28 23:26 | 24.67134 | 39.79482 | 14957 ft | 297 kts | 343° |
| 2026-04-28 23:27 | 24.69155 | 39.79052 | 14717 ft | 295 kts | 343° |
| 2026-04-28 23:27 | 24.71175 | 39.78623 | 14368 ft | 297 kts | 344° |
| 2026-04-28 23:27 | 24.73221 | 39.78185 | 13973 ft | 302 kts | 344° |
| 2026-04-28 23:27 | 24.75297 | 39.77740 | 13531 ft | 307 kts | 344° |
| 2026-04-28 23:28 | 24.77378 | 39.77297 | 13035 ft | 312 kts | 345° |
| 2026-04-28 23:28 | 24.79544 | 39.76835 | 12374 ft | 322 kts | 345° |
| 2026-04-28 23:28 | 24.81748 | 39.76368 | 11732 ft | 321 kts | 345° |
| 2026-04-28 23:28 | 24.83923 | 39.75880 | 11097 ft | 316 kts | 339° |
| 2026-04-28 23:29 | 24.85797 | 39.74782 | 10491 ft | 300 kts | 313° |
| 2026-04-28 23:29 | 24.87005 | 39.73001 | 9922 ft | 286 kts | 289° |
| 2026-04-28 23:29 | 24.87439 | 39.70942 | 9385 ft | 271 kts | 268° |
| 2026-04-28 23:29 | 24.87149 | 39.68947 | 8856 ft | 261 kts | 248° |
| 2026-04-28 23:30 | 24.86266 | 39.67246 | 8327 ft | 254 kts | 229° |
| 2026-04-28 23:30 | 24.84957 | 39.65993 | 7687 ft | 254 kts | 211° |
| 2026-04-28 23:30 | 24.83313 | 39.65292 | 7117 ft | 254 kts | 190° |
| 2026-04-28 23:30 | 24.81587 | 39.65242 | 6771 ft | 245 kts | 172° |
| 2026-04-28 23:31 | 24.79948 | 39.65583 | 6473 ft | 234 kts | 169° |
| 2026-04-28 23:31 | 24.78370 | 39.65919 | 6178 ft | 229 kts | 169° |
| 2026-04-28 23:31 | 24.76815 | 39.66250 | 5869 ft | 225 kts | 169° |
| 2026-04-28 23:31 | 24.75297 | 39.66573 | 5579 ft | 219 kts | 169° |
| 2026-04-28 23:32 | 24.73836 | 39.66885 | 5314 ft | 210 kts | 169° |
| 2026-04-28 23:32 | 24.72442 | 39.67182 | 5053 ft | 201 kts | 169° |
| 2026-04-28 23:32 | 24.71096 | 39.67468 | 4800 ft | 194 kts | 169° |
| 2026-04-28 23:32 | 24.69805 | 39.67743 | 4549 ft | 183 kts | 169° |
| 2026-04-28 23:33 | 24.68602 | 39.67999 | 4335 ft | 167 kts | 169° |
| 2026-04-28 23:33 | 24.67509 | 39.68232 | 4113 ft | 155 kts | 169° |
| 2026-04-28 23:33 | 24.66469 | 39.68453 | 3915 ft | 150 kts | 170° |
| 2026-04-28 23:33 | 24.65455 | 39.68669 | 3727 ft | 147 kts | 170° |
| 2026-04-28 23:34 | 24.64455 | 39.68882 | 3540 ft | 146 kts | 171° |
| 2026-04-28 23:34 | 24.63475 | 39.69090 | 3356 ft | 145 kts | 171° |
| 2026-04-28 23:34 | 24.62489 | 39.69300 | 3170 ft | 144 kts | 171° |
| 2026-04-28 23:34 | 24.61507 | 39.69509 | 2965 ft | 144 kts | 170° |
| 2026-04-28 23:35 | 24.60527 | 39.69717 | 2770 ft | 144 kts | 170° |
| 2026-04-28 23:35 | 24.59545 | 39.69926 | 2571 ft | 144 kts | 169° |
| 2026-04-28 23:35 | 24.58562 | 39.70136 | 2376 ft | 144 kts | 169° |
| 2026-04-28 23:35 | 24.57577 | 39.70347 | 2166 ft | 144 kts | 169° |
| 2026-04-28 23:36 | 24.56677 | 39.70539 | 2112 ft | 109 kts | 169° |
| 2026-04-28 23:36 | 24.56098 | 39.70662 | 2113 ft | 60 kts | 168° |
| 2026-04-28 23:36 | 24.55732 | 39.70741 | 2110 ft | 52 kts | 169° |
| 2026-04-28 23:36 | 24.55394 | 39.70826 | 2110 ft | 47 kts | 157° |
| 2026-04-28 23:37 | 24.55236 | 39.70951 | 2109 ft | 14 kts | 138° |
| 2026-04-28 23:37 | 24.55214 | 39.71021 | 2107 ft | 5 kts | 80° |
| 2026-04-28 23:37 | 24.55223 | 39.71060 | 2107 ft | 6 kts | 77° |
| 2026-04-28 23:37 | 24.55230 | 39.71103 | 2106 ft | 6 kts | 80° |
| 2026-04-28 23:38 | 24.55238 | 39.71150 | 2105 ft | 6 kts | 80° |
| 2026-04-28 23:38 | 24.55240 | 39.71194 | 2105 ft | 5 kts | 91° |
| 2026-04-28 23:38 | 24.55236 | 39.71235 | 2105 ft | 7 kts | 92° |
| 2026-04-28 23:38 | 24.55244 | 39.71296 | 2105 ft | 7 kts | 78° |
| 2026-04-28 23:39 | 24.55250 | 39.71323 | 2105 ft | 1 kts | 78° |
| 2026-04-28 23:39 | 24.55250 | 39.71328 | 2105 ft | 0 kts | 78° |